sensor_id;sensor_type;location;lat;lon;timestamp;P1;durP1;ratioP1;P2;durP2;ratioP2
13173;SDS011;6652;48.802;9.190;2023-03-01T00:02:21;35.95;;;18.02;;
13173;SDS011;6652;48.802;9.190;2023-03-01T00:04:48;39.13;;;18.85;;
13173;SDS011;6652;48.802;9.190;2023-03-01T00:07:15;40.28;;;18.13;;
13173;SDS011;6652;48.802;9.190;2023-03-01T00:09:42;31.85;;;17.55;;
13173;SDS011;6652;48.802;9.190;2023-03-01T00:12:12;32.55;;;17.13;;
13173;SDS011;6652;48.802;9.190;2023-03-01T00:14:39;36.50;;;18.25;;
13173;SDS011;6652;48.802;9.190;2023-03-01T00:17:05;38.05;;;18.63;;
13173;SDS011;6652;48.802;9.190;2023-03-01T00:19:32;32.53;;;17.85;;
13173;SDS011;6652;48.802;9.190;2023-03-01T00:21:59;32.53;;;17.88;;
13173;SDS011;6652;48.802;9.190;2023-03-01T00:24:26;36.22;;;18.02;;
13173;SDS011;6652;48.802;9.190;2023-03-01T00:26:53;33.28;;;17.92;;
13173;SDS011;6652;48.802;9.190;2023-03-01T00:29:23;36.38;;;19.75;;
13173;SDS011;6652;48.802;9.190;2023-03-01T00:31:50;42.17;;;17.13;;
13173;SDS011;6652;48.802;9.190;2023-03-01T00:34:18;33.65;;;17.50;;
13173;SDS011;6652;48.802;9.190;2023-03-01T00:36:44;33.17;;;16.83;;
13173;SDS011;6652;48.802;9.190;2023-03-01T00:39:12;36.47;;;17.30;;
13173;SDS011;6652;48.802;9.190;2023-03-01T00:41:40;35.47;;;18.58;;
13173;SDS011;6652;48.802;9.190;2023-03-01T00:44:07;34.70;;;18.27;;
13173;SDS011;6652;48.802;9.190;2023-03-01T00:46:35;38.22;;;19.65;;
13173;SDS011;6652;48.802;9.190;2023-03-01T00:49:02;43.70;;;20.23;;
13173;SDS011;6652;48.802;9.190;2023-03-01T00:51:29;35.88;;;18.02;;
13173;SDS011;6652;48.802;9.190;2023-03-01T00:53:58;37.58;;;17.23;;
13173;SDS011;6652;48.802;9.190;2023-03-01T00:56:27;37.83;;;18.25;;
13173;SDS011;6652;48.802;9.190;2023-03-01T00:58:54;34.72;;;17.65;;
13173;SDS011;6652;48.802;9.190;2023-03-01T01:01:22;33.42;;;17.58;;
13173;SDS011;6652;48.802;9.190;2023-03-01T01:04:05;31.45;;;17.00;;
13173;SDS011;6652;48.802;9.190;2023-03-01T01:06:34;31.70;;;17.73;;
13173;SDS011;6652;48.802;9.190;2023-03-01T01:09:02;36.28;;;17.73;;
13173;SDS011;6652;48.802;9.190;2023-03-01T01:11:30;33.45;;;18.00;;
13173;SDS011;6652;48.802;9.190;2023-03-01T01:13:57;33.50;;;17.42;;
13173;SDS011;6652;48.802;9.190;2023-03-01T01:16:25;33.85;;;18.50;;
13173;SDS011;6652;48.802;9.190;2023-03-01T01:18:53;34.22;;;17.38;;
13173;SDS011;6652;48.802;9.190;2023-03-01T01:21:23;31.23;;;17.15;;
13173;SDS011;6652;48.802;9.190;2023-03-01T01:23:51;37.30;;;18.20;;
13173;SDS011;6652;48.802;9.190;2023-03-01T01:26:18;36.75;;;18.48;;
13173;SDS011;6652;48.802;9.190;2023-03-01T01:28:47;34.28;;;17.83;;
13173;SDS011;6652;48.802;9.190;2023-03-01T01:31:14;34.15;;;17.85;;
13173;SDS011;6652;48.802;9.190;2023-03-01T01:33:41;36.53;;;19.95;;
13173;SDS011;6652;48.802;9.190;2023-03-01T01:36:08;37.88;;;18.48;;
13173;SDS011;6652;48.802;9.190;2023-03-01T01:38:37;38.08;;;18.40;;
13173;SDS011;6652;48.802;9.190;2023-03-01T01:41:04;35.70;;;18.35;;
13173;SDS011;6652;48.802;9.190;2023-03-01T01:43:33;31.08;;;17.15;;
13173;SDS011;6652;48.802;9.190;2023-03-01T01:46:02;40.92;;;17.70;;
13173;SDS011;6652;48.802;9.190;2023-03-01T01:48:32;36.92;;;18.58;;
13173;SDS011;6652;48.802;9.190;2023-03-01T01:51:06;33.03;;;17.90;;
13173;SDS011;6652;48.802;9.190;2023-03-01T01:53:39;33.30;;;17.15;;
13173;SDS011;6652;48.802;9.190;2023-03-01T01:56:08;32.17;;;17.95;;
13173;SDS011;6652;48.802;9.190;2023-03-01T01:58:37;35.95;;;17.73;;
13173;SDS011;6652;48.802;9.190;2023-03-01T02:01:04;33.47;;;17.55;;
13173;SDS011;6652;48.802;9.190;2023-03-01T02:03:32;38.92;;;17.48;;
13173;SDS011;6652;48.802;9.190;2023-03-01T02:06:03;32.35;;;17.65;;
13173;SDS011;6652;48.802;9.190;2023-03-01T02:08:35;35.50;;;18.38;;
13173;SDS011;6652;48.802;9.190;2023-03-01T02:11:07;33.42;;;17.67;;
13173;SDS011;6652;48.802;9.190;2023-03-01T02:13:35;33.40;;;17.30;;
13173;SDS011;6652;48.802;9.190;2023-03-01T02:16:02;30.35;;;17.27;;
13173;SDS011;6652;48.802;9.190;2023-03-01T02:18:30;35.70;;;18.33;;
13173;SDS011;6652;48.802;9.190;2023-03-01T02:21:04;34.22;;;17.60;;
13173;SDS011;6652;48.802;9.190;2023-03-01T02:23:40;35.22;;;17.52;;
13173;SDS011;6652;48.802;9.190;2023-03-01T02:26:09;31.90;;;17.98;;
13173;SDS011;6652;48.802;9.190;2023-03-01T02:28:42;33.80;;;19.38;;
13173;SDS011;6652;48.802;9.190;2023-03-01T02:31:10;36.05;;;18.10;;
13173;SDS011;6652;48.802;9.190;2023-03-01T02:33:58;35.83;;;18.77;;
13173;SDS011;6652;48.802;9.190;2023-03-01T02:36:26;32.00;;;17.60;;
13173;SDS011;6652;48.802;9.190;2023-03-01T02:38:57;35.60;;;18.75;;
13173;SDS011;6652;48.802;9.190;2023-03-01T02:41:26;38.90;;;19.48;;
13173;SDS011;6652;48.802;9.190;2023-03-01T02:43:56;36.72;;;18.77;;
13173;SDS011;6652;48.802;9.190;2023-03-01T02:46:24;40.13;;;18.08;;
13173;SDS011;6652;48.802;9.190;2023-03-01T02:48:52;33.92;;;18.25;;
13173;SDS011;6652;48.802;9.190;2023-03-01T02:51:31;35.10;;;19.55;;
13173;SDS011;6652;48.802;9.190;2023-03-01T02:54:13;35.72;;;19.05;;
13173;SDS011;6652;48.802;9.190;2023-03-01T02:56:47;32.90;;;17.95;;
13173;SDS011;6652;48.802;9.190;2023-03-01T02:59:16;33.53;;;18.33;;
13173;SDS011;6652;48.802;9.190;2023-03-01T03:01:45;39.65;;;19.13;;
13173;SDS011;6652;48.802;9.190;2023-03-01T03:04:14;42.50;;;19.48;;
13173;SDS011;6652;48.802;9.190;2023-03-01T03:06:43;36.30;;;18.92;;
13173;SDS011;6652;48.802;9.190;2023-03-01T03:09:10;35.15;;;19.80;;
13173;SDS011;6652;48.802;9.190;2023-03-01T03:11:37;31.08;;;17.73;;
13173;SDS011;6652;48.802;9.190;2023-03-01T03:14:05;38.03;;;18.33;;
13173;SDS011;6652;48.802;9.190;2023-03-01T03:16:38;34.42;;;19.30;;
13173;SDS011;6652;48.802;9.190;2023-03-01T03:19:06;35.22;;;18.58;;
13173;SDS011;6652;48.802;9.190;2023-03-01T03:21:33;34.85;;;18.67;;
13173;SDS011;6652;48.802;9.190;2023-03-01T03:24:00;39.45;;;19.77;;
13173;SDS011;6652;48.802;9.190;2023-03-01T03:26:27;39.38;;;19.90;;
13173;SDS011;6652;48.802;9.190;2023-03-01T03:28:54;36.28;;;19.55;;
13173;SDS011;6652;48.802;9.190;2023-03-01T03:31:22;43.72;;;19.60;;
13173;SDS011;6652;48.802;9.190;2023-03-01T03:33:50;39.08;;;19.40;;
13173;SDS011;6652;48.802;9.190;2023-03-01T03:36:17;37.20;;;19.42;;
13173;SDS011;6652;48.802;9.190;2023-03-01T03:38:46;34.47;;;19.30;;
13173;SDS011;6652;48.802;9.190;2023-03-01T03:41:13;35.83;;;19.17;;
13173;SDS011;6652;48.802;9.190;2023-03-01T03:43:41;38.38;;;20.13;;
13173;SDS011;6652;48.802;9.190;2023-03-01T03:46:09;35.20;;;19.77;;
13173;SDS011;6652;48.802;9.190;2023-03-01T03:48:37;35.08;;;19.60;;
13173;SDS011;6652;48.802;9.190;2023-03-01T03:51:09;39.85;;;21.33;;
13173;SDS011;6652;48.802;9.190;2023-03-01T03:53:36;35.72;;;20.10;;
13173;SDS011;6652;48.802;9.190;2023-03-01T03:56:04;37.30;;;19.98;;
13173;SDS011;6652;48.802;9.190;2023-03-01T03:58:31;37.72;;;20.52;;
13173;SDS011;6652;48.802;9.190;2023-03-01T04:00:58;35.63;;;19.98;;
13173;SDS011;6652;48.802;9.190;2023-03-01T04:03:27;35.25;;;20.05;;
13173;SDS011;6652;48.802;9.190;2023-03-01T04:05:56;36.90;;;20.17;;
13173;SDS011;6652;48.802;9.190;2023-03-01T04:08:26;38.22;;;20.13;;
13173;SDS011;6652;48.802;9.190;2023-03-01T04:10:56;34.75;;;19.80;;
13173;SDS011;6652;48.802;9.190;2023-03-01T04:13:45;45.28;;;21.98;;
13173;SDS011;6652;48.802;9.190;2023-03-01T04:16:12;36.35;;;20.02;;
13173;SDS011;6652;48.802;9.190;2023-03-01T04:18:39;39.83;;;20.75;;
13173;SDS011;6652;48.802;9.190;2023-03-01T04:21:06;38.67;;;19.65;;
13173;SDS011;6652;48.802;9.190;2023-03-01T04:23:34;40.25;;;20.63;;
13173;SDS011;6652;48.802;9.190;2023-03-01T04:26:01;35.85;;;20.05;;
13173;SDS011;6652;48.802;9.190;2023-03-01T04:28:29;41.67;;;21.15;;
13173;SDS011;6652;48.802;9.190;2023-03-01T04:31:01;36.70;;;20.45;;
13173;SDS011;6652;48.802;9.190;2023-03-01T04:33:32;40.17;;;21.52;;
13173;SDS011;6652;48.802;9.190;2023-03-01T04:35:59;48.65;;;21.42;;
13173;SDS011;6652;48.802;9.190;2023-03-01T04:38:30;38.08;;;21.33;;
13173;SDS011;6652;48.802;9.190;2023-03-01T04:40:58;34.40;;;20.15;;
13173;SDS011;6652;48.802;9.190;2023-03-01T04:43:25;36.55;;;21.55;;
13173;SDS011;6652;48.802;9.190;2023-03-01T04:45:52;37.63;;;19.85;;
13173;SDS011;6652;48.802;9.190;2023-03-01T04:48:18;36.85;;;20.23;;
13173;SDS011;6652;48.802;9.190;2023-03-01T04:50:45;40.33;;;21.52;;
13173;SDS011;6652;48.802;9.190;2023-03-01T04:53:12;38.95;;;20.92;;
13173;SDS011;6652;48.802;9.190;2023-03-01T04:55:39;36.72;;;20.23;;
13173;SDS011;6652;48.802;9.190;2023-03-01T04:58:07;36.65;;;20.30;;
13173;SDS011;6652;48.802;9.190;2023-03-01T05:00:34;37.05;;;19.77;;
13173;SDS011;6652;48.802;9.190;2023-03-01T05:03:01;39.42;;;21.17;;
13173;SDS011;6652;48.802;9.190;2023-03-01T05:05:30;42.10;;;20.70;;
13173;SDS011;6652;48.802;9.190;2023-03-01T05:07:58;43.25;;;20.17;;
13173;SDS011;6652;48.802;9.190;2023-03-01T05:10:26;37.55;;;21.23;;
13173;SDS011;6652;48.802;9.190;2023-03-01T05:12:55;34.42;;;19.35;;
13173;SDS011;6652;48.802;9.190;2023-03-01T05:15:25;42.75;;;20.27;;
13173;SDS011;6652;48.802;9.190;2023-03-01T05:17:52;37.63;;;21.33;;
13173;SDS011;6652;48.802;9.190;2023-03-01T05:20:20;38.33;;;20.73;;
13173;SDS011;6652;48.802;9.190;2023-03-01T05:22:49;44.35;;;20.75;;
13173;SDS011;6652;48.802;9.190;2023-03-01T05:25:16;39.60;;;20.30;;
13173;SDS011;6652;48.802;9.190;2023-03-01T05:27:43;41.35;;;20.83;;
13173;SDS011;6652;48.802;9.190;2023-03-01T05:30:10;36.55;;;19.90;;
13173;SDS011;6652;48.802;9.190;2023-03-01T05:32:42;36.33;;;20.30;;
13173;SDS011;6652;48.802;9.190;2023-03-01T05:35:11;38.47;;;20.92;;
13173;SDS011;6652;48.802;9.190;2023-03-01T05:37:42;39.97;;;19.52;;
13173;SDS011;6652;48.802;9.190;2023-03-01T05:40:11;38.20;;;20.50;;
13173;SDS011;6652;48.802;9.190;2023-03-01T05:42:41;41.47;;;20.98;;
13173;SDS011;6652;48.802;9.190;2023-03-01T05:45:09;39.95;;;21.10;;
13173;SDS011;6652;48.802;9.190;2023-03-01T05:47:37;39.75;;;20.45;;
13173;SDS011;6652;48.802;9.190;2023-03-01T05:50:06;41.20;;;19.92;;
13173;SDS011;6652;48.802;9.190;2023-03-01T05:52:33;44.35;;;21.13;;
13173;SDS011;6652;48.802;9.190;2023-03-01T05:55:00;41.58;;;22.17;;
13173;SDS011;6652;48.802;9.190;2023-03-01T05:57:27;40.78;;;19.42;;
13173;SDS011;6652;48.802;9.190;2023-03-01T05:59:54;37.80;;;20.33;;
13173;SDS011;6652;48.802;9.190;2023-03-01T06:02:21;38.05;;;18.92;;
13173;SDS011;6652;48.802;9.190;2023-03-01T06:04:48;39.97;;;20.30;;
13173;SDS011;6652;48.802;9.190;2023-03-01T06:07:16;36.97;;;20.55;;
13173;SDS011;6652;48.802;9.190;2023-03-01T06:09:43;42.70;;;20.30;;
13173;SDS011;6652;48.802;9.190;2023-03-01T06:12:10;42.03;;;20.85;;
13173;SDS011;6652;48.802;9.190;2023-03-01T06:14:37;41.85;;;21.38;;
13173;SDS011;6652;48.802;9.190;2023-03-01T06:17:04;39.33;;;20.77;;
13173;SDS011;6652;48.802;9.190;2023-03-01T06:19:31;38.65;;;20.63;;
13173;SDS011;6652;48.802;9.190;2023-03-01T06:21:57;37.05;;;20.15;;
13173;SDS011;6652;48.802;9.190;2023-03-01T06:24:26;40.60;;;20.77;;
13173;SDS011;6652;48.802;9.190;2023-03-01T06:26:53;34.75;;;19.65;;
13173;SDS011;6652;48.802;9.190;2023-03-01T06:32:39;36.63;;;19.90;;
13173;SDS011;6652;48.802;9.190;2023-03-01T06:35:08;38.35;;;20.23;;
13173;SDS011;6652;48.802;9.190;2023-03-01T06:37:35;38.95;;;20.05;;
13173;SDS011;6652;48.802;9.190;2023-03-01T06:40:04;40.25;;;20.70;;
13173;SDS011;6652;48.802;9.190;2023-03-01T06:42:33;43.88;;;21.67;;
13173;SDS011;6652;48.802;9.190;2023-03-01T06:45:00;36.75;;;21.13;;
13173;SDS011;6652;48.802;9.190;2023-03-01T06:47:27;38.63;;;20.20;;
13173;SDS011;6652;48.802;9.190;2023-03-01T06:49:54;40.33;;;20.52;;
13173;SDS011;6652;48.802;9.190;2023-03-01T06:52:20;33.80;;;19.70;;
13173;SDS011;6652;48.802;9.190;2023-03-01T06:54:47;36.67;;;20.20;;
13173;SDS011;6652;48.802;9.190;2023-03-01T06:57:15;41.65;;;20.92;;
13173;SDS011;6652;48.802;9.190;2023-03-01T06:59:42;35.65;;;20.40;;
13173;SDS011;6652;48.802;9.190;2023-03-01T07:02:09;30.52;;;18.60;;
13173;SDS011;6652;48.802;9.190;2023-03-01T07:04:37;37.60;;;19.88;;
13173;SDS011;6652;48.802;9.190;2023-03-01T07:07:04;34.88;;;19.85;;
13173;SDS011;6652;48.802;9.190;2023-03-01T07:09:31;35.17;;;19.83;;
13173;SDS011;6652;48.802;9.190;2023-03-01T07:11:58;35.88;;;20.98;;
13173;SDS011;6652;48.802;9.190;2023-03-01T07:14:26;35.20;;;19.67;;
13173;SDS011;6652;48.802;9.190;2023-03-01T07:16:54;31.80;;;18.88;;
13173;SDS011;6652;48.802;9.190;2023-03-01T07:19:21;33.10;;;19.52;;
13173;SDS011;6652;48.802;9.190;2023-03-01T07:21:48;36.55;;;21.38;;
13173;SDS011;6652;48.802;9.190;2023-03-01T07:24:15;32.83;;;20.48;;
13173;SDS011;6652;48.802;9.190;2023-03-01T07:26:42;33.20;;;20.05;;
13173;SDS011;6652;48.802;9.190;2023-03-01T07:29:09;36.20;;;19.98;;
13173;SDS011;6652;48.802;9.190;2023-03-01T07:31:38;31.83;;;19.88;;
13173;SDS011;6652;48.802;9.190;2023-03-01T07:34:04;34.95;;;20.52;;
13173;SDS011;6652;48.802;9.190;2023-03-01T07:36:31;34.80;;;21.02;;
13173;SDS011;6652;48.802;9.190;2023-03-01T07:38:58;30.48;;;19.35;;
13173;SDS011;6652;48.802;9.190;2023-03-01T07:41:27;29.80;;;20.25;;
13173;SDS011;6652;48.802;9.190;2023-03-01T07:43:54;30.50;;;19.70;;
13173;SDS011;6652;48.802;9.190;2023-03-01T07:46:21;33.42;;;20.65;;
13173;SDS011;6652;48.802;9.190;2023-03-01T07:48:49;32.35;;;19.42;;
13173;SDS011;6652;48.802;9.190;2023-03-01T07:51:15;31.50;;;20.58;;
13173;SDS011;6652;48.802;9.190;2023-03-01T07:53:44;29.08;;;19.15;;
13173;SDS011;6652;48.802;9.190;2023-03-01T07:56:12;30.30;;;19.65;;
13173;SDS011;6652;48.802;9.190;2023-03-01T07:58:42;30.67;;;19.77;;
13173;SDS011;6652;48.802;9.190;2023-03-01T08:01:12;29.27;;;19.63;;
13173;SDS011;6652;48.802;9.190;2023-03-01T08:03:40;32.97;;;21.63;;
13173;SDS011;6652;48.802;9.190;2023-03-01T08:06:09;30.15;;;20.13;;
13173;SDS011;6652;48.802;9.190;2023-03-01T08:08:40;35.63;;;20.50;;
13173;SDS011;6652;48.802;9.190;2023-03-01T08:11:07;31.83;;;20.20;;
13173;SDS011;6652;48.802;9.190;2023-03-01T08:13:37;30.77;;;19.33;;
13173;SDS011;6652;48.802;9.190;2023-03-01T08:16:04;30.70;;;20.90;;
13173;SDS011;6652;48.802;9.190;2023-03-01T08:18:32;33.05;;;20.63;;
13173;SDS011;6652;48.802;9.190;2023-03-01T08:21:03;31.08;;;19.88;;
13173;SDS011;6652;48.802;9.190;2023-03-01T08:23:31;34.30;;;20.73;;
13173;SDS011;6652;48.802;9.190;2023-03-01T08:26:03;33.25;;;21.63;;
13173;SDS011;6652;48.802;9.190;2023-03-01T08:28:31;34.20;;;20.50;;
13173;SDS011;6652;48.802;9.190;2023-03-01T08:30:59;29.55;;;20.20;;
13173;SDS011;6652;48.802;9.190;2023-03-01T08:33:26;31.08;;;19.73;;
13173;SDS011;6652;48.802;9.190;2023-03-01T08:36:01;32.03;;;20.02;;
13173;SDS011;6652;48.802;9.190;2023-03-01T08:38:28;28.70;;;19.98;;
13173;SDS011;6652;48.802;9.190;2023-03-01T08:40:56;35.10;;;21.17;;
13173;SDS011;6652;48.802;9.190;2023-03-01T08:43:25;35.42;;;21.05;;
13173;SDS011;6652;48.802;9.190;2023-03-01T08:45:52;34.50;;;20.10;;
13173;SDS011;6652;48.802;9.190;2023-03-01T08:48:19;38.03;;;20.60;;
13173;SDS011;6652;48.802;9.190;2023-03-01T08:50:46;30.60;;;20.08;;
13173;SDS011;6652;48.802;9.190;2023-03-01T08:53:12;33.50;;;20.20;;
13173;SDS011;6652;48.802;9.190;2023-03-01T08:55:39;32.97;;;19.77;;
13173;SDS011;6652;48.802;9.190;2023-03-01T08:58:07;34.28;;;19.95;;
13173;SDS011;6652;48.802;9.190;2023-03-01T09:00:34;30.17;;;19.85;;
13173;SDS011;6652;48.802;9.190;2023-03-01T09:03:01;35.75;;;20.63;;
13173;SDS011;6652;48.802;9.190;2023-03-01T09:05:28;34.33;;;21.58;;
13173;SDS011;6652;48.802;9.190;2023-03-01T09:07:57;31.38;;;21.63;;
13173;SDS011;6652;48.802;9.190;2023-03-01T09:10:24;30.35;;;19.73;;
13173;SDS011;6652;48.802;9.190;2023-03-01T09:12:51;31.20;;;21.17;;
13173;SDS011;6652;48.802;9.190;2023-03-01T09:15:19;29.65;;;20.75;;
13173;SDS011;6652;48.802;9.190;2023-03-01T09:17:46;34.53;;;20.65;;
13173;SDS011;6652;48.802;9.190;2023-03-01T09:20:13;33.70;;;20.27;;
13173;SDS011;6652;48.802;9.190;2023-03-01T09:22:39;37.30;;;22.05;;
13173;SDS011;6652;48.802;9.190;2023-03-01T09:25:06;35.97;;;19.45;;
13173;SDS011;6652;48.802;9.190;2023-03-01T09:27:34;43.45;;;22.00;;
13173;SDS011;6652;48.802;9.190;2023-03-01T09:30:01;34.88;;;21.08;;
13173;SDS011;6652;48.802;9.190;2023-03-01T09:32:31;32.88;;;20.05;;
13173;SDS011;6652;48.802;9.190;2023-03-01T09:34:58;32.75;;;19.70;;
13173;SDS011;6652;48.802;9.190;2023-03-01T09:37:29;35.28;;;20.27;;
13173;SDS011;6652;48.802;9.190;2023-03-01T09:39:57;37.10;;;21.05;;
13173;SDS011;6652;48.802;9.190;2023-03-01T09:42:24;31.40;;;19.98;;
13173;SDS011;6652;48.802;9.190;2023-03-01T09:44:53;33.80;;;20.88;;
13173;SDS011;6652;48.802;9.190;2023-03-01T09:47:24;31.25;;;20.70;;
13173;SDS011;6652;48.802;9.190;2023-03-01T09:49:58;33.55;;;20.70;;
13173;SDS011;6652;48.802;9.190;2023-03-01T09:52:33;42.53;;;20.70;;
13173;SDS011;6652;48.802;9.190;2023-03-01T09:55:08;36.97;;;20.65;;
13173;SDS011;6652;48.802;9.190;2023-03-01T10:00:13;31.42;;;18.90;;
13173;SDS011;6652;48.802;9.190;2023-03-01T10:02:52;36.53;;;21.05;;
13173;SDS011;6652;48.802;9.190;2023-03-01T10:05:36;32.10;;;20.83;;
13173;SDS011;6652;48.802;9.190;2023-03-01T10:08:23;33.08;;;21.63;;
13173;SDS011;6652;48.802;9.190;2023-03-01T10:10:55;29.38;;;19.45;;
13173;SDS011;6652;48.802;9.190;2023-03-01T10:13:24;30.15;;;20.40;;
13173;SDS011;6652;48.802;9.190;2023-03-01T10:15:56;32.22;;;20.85;;
13173;SDS011;6652;48.802;9.190;2023-03-01T10:18:26;32.17;;;20.27;;
13173;SDS011;6652;48.802;9.190;2023-03-01T10:20:55;30.38;;;18.67;;
13173;SDS011;6652;48.802;9.190;2023-03-01T10:23:25;31.13;;;19.15;;
13173;SDS011;6652;48.802;9.190;2023-03-01T10:26:02;30.02;;;18.65;;
13173;SDS011;6652;48.802;9.190;2023-03-01T10:28:40;30.20;;;18.63;;
13173;SDS011;6652;48.802;9.190;2023-03-01T10:31:13;37.25;;;19.80;;
13173;SDS011;6652;48.802;9.190;2023-03-01T10:33:44;29.63;;;19.15;;
13173;SDS011;6652;48.802;9.190;2023-03-01T10:36:14;31.23;;;20.70;;
13173;SDS011;6652;48.802;9.190;2023-03-01T10:38:47;29.50;;;18.60;;
13173;SDS011;6652;48.802;9.190;2023-03-01T10:41:17;29.30;;;18.98;;
13173;SDS011;6652;48.802;9.190;2023-03-01T10:43:45;31.30;;;19.08;;
13173;SDS011;6652;48.802;9.190;2023-03-01T10:46:21;27.98;;;17.98;;
13173;SDS011;6652;48.802;9.190;2023-03-01T10:49:04;27.70;;;17.65;;
13173;SDS011;6652;48.802;9.190;2023-03-01T10:51:34;30.52;;;19.05;;
13173;SDS011;6652;48.802;9.190;2023-03-01T10:54:02;31.77;;;18.25;;
13173;SDS011;6652;48.802;9.190;2023-03-01T10:56:29;29.63;;;18.95;;
13173;SDS011;6652;48.802;9.190;2023-03-01T10:59:19;30.50;;;20.05;;
13173;SDS011;6652;48.802;9.190;2023-03-01T11:02:00;34.28;;;19.00;;
13173;SDS011;6652;48.802;9.190;2023-03-01T11:04:55;31.73;;;19.23;;
13173;SDS011;6652;48.802;9.190;2023-03-01T11:07:25;31.52;;;18.73;;
13173;SDS011;6652;48.802;9.190;2023-03-01T11:09:52;33.88;;;19.13;;
13173;SDS011;6652;48.802;9.190;2023-03-01T11:12:20;32.63;;;19.63;;
13173;SDS011;6652;48.802;9.190;2023-03-01T11:14:47;35.88;;;18.77;;
13173;SDS011;6652;48.802;9.190;2023-03-01T11:17:17;34.00;;;19.40;;
13173;SDS011;6652;48.802;9.190;2023-03-01T11:19:59;30.17;;;19.58;;
13173;SDS011;6652;48.802;9.190;2023-03-01T11:22:28;30.63;;;19.10;;
13173;SDS011;6652;48.802;9.190;2023-03-01T11:24:56;33.60;;;18.65;;
13173;SDS011;6652;48.802;9.190;2023-03-01T11:27:24;29.13;;;16.98;;
13173;SDS011;6652;48.802;9.190;2023-03-01T11:29:54;34.95;;;20.33;;
13173;SDS011;6652;48.802;9.190;2023-03-01T11:32:26;29.60;;;18.58;;
13173;SDS011;6652;48.802;9.190;2023-03-01T11:34:58;35.75;;;19.02;;
13173;SDS011;6652;48.802;9.190;2023-03-01T11:37:33;28.75;;;18.23;;
13173;SDS011;6652;48.802;9.190;2023-03-01T11:40:09;28.83;;;18.63;;
13173;SDS011;6652;48.802;9.190;2023-03-01T11:45:17;30.85;;;19.65;;
13173;SDS011;6652;48.802;9.190;2023-03-01T11:47:57;28.00;;;17.88;;
13173;SDS011;6652;48.802;9.190;2023-03-01T11:50:45;33.17;;;18.30;;
13173;SDS011;6652;48.802;9.190;2023-03-01T11:53:23;29.05;;;18.67;;
13173;SDS011;6652;48.802;9.190;2023-03-01T11:56:08;28.83;;;16.75;;
13173;SDS011;6652;48.802;9.190;2023-03-01T11:58:49;34.03;;;17.98;;
13173;SDS011;6652;48.802;9.190;2023-03-01T12:01:32;30.23;;;17.25;;
13173;SDS011;6652;48.802;9.190;2023-03-01T12:04:23;33.40;;;16.98;;
13173;SDS011;6652;48.802;9.190;2023-03-01T12:07:09;26.77;;;17.00;;
13173;SDS011;6652;48.802;9.190;2023-03-01T12:09:47;31.38;;;17.42;;
13173;SDS011;6652;48.802;9.190;2023-03-01T12:12:27;30.00;;;16.90;;
13173;SDS011;6652;48.802;9.190;2023-03-01T12:15:09;30.77;;;17.52;;
13173;SDS011;6652;48.802;9.190;2023-03-01T12:17:57;28.98;;;16.25;;
13173;SDS011;6652;48.802;9.190;2023-03-01T12:20:34;29.83;;;16.98;;
13173;SDS011;6652;48.802;9.190;2023-03-01T12:26:04;25.52;;;16.40;;
13173;SDS011;6652;48.802;9.190;2023-03-01T12:31:35;25.60;;;16.17;;
13173;SDS011;6652;48.802;9.190;2023-03-01T12:34:24;26.52;;;16.38;;
13173;SDS011;6652;48.802;9.190;2023-03-01T12:37:15;31.02;;;16.48;;
13173;SDS011;6652;48.802;9.190;2023-03-01T12:39:51;26.65;;;16.35;;
13173;SDS011;6652;48.802;9.190;2023-03-01T12:42:29;25.83;;;16.13;;
13173;SDS011;6652;48.802;9.190;2023-03-01T12:45:12;28.60;;;15.90;;
13173;SDS011;6652;48.802;9.190;2023-03-01T12:47:55;27.75;;;15.80;;
13173;SDS011;6652;48.802;9.190;2023-03-01T12:50:34;25.65;;;15.90;;
13173;SDS011;6652;48.802;9.190;2023-03-01T12:53:07;29.15;;;15.98;;
13173;SDS011;6652;48.802;9.190;2023-03-01T12:55:47;27.48;;;16.02;;
13173;SDS011;6652;48.802;9.190;2023-03-01T12:58:20;25.90;;;14.88;;
13173;SDS011;6652;48.802;9.190;2023-03-01T13:00:54;30.52;;;14.75;;
13173;SDS011;6652;48.802;9.190;2023-03-01T13:03:32;24.00;;;14.50;;
13173;SDS011;6652;48.802;9.190;2023-03-01T13:06:08;25.50;;;15.23;;
13173;SDS011;6652;48.802;9.190;2023-03-01T13:08:42;26.45;;;13.95;;
13173;SDS011;6652;48.802;9.190;2023-03-01T13:11:15;18.90;;;12.90;;
13173;SDS011;6652;48.802;9.190;2023-03-01T13:13:46;24.83;;;14.68;;
13173;SDS011;6652;48.802;9.190;2023-03-01T13:16:20;25.52;;;15.43;;
13173;SDS011;6652;48.802;9.190;2023-03-01T13:19:06;29.67;;;16.52;;
13173;SDS011;6652;48.802;9.190;2023-03-01T13:21:34;27.25;;;17.13;;
13173;SDS011;6652;48.802;9.190;2023-03-01T13:24:01;26.38;;;15.98;;
13173;SDS011;6652;48.802;9.190;2023-03-01T13:26:28;28.08;;;16.38;;
13173;SDS011;6652;48.802;9.190;2023-03-01T13:28:57;27.08;;;16.00;;
13173;SDS011;6652;48.802;9.190;2023-03-01T13:37:34;26.17;;;15.65;;
13173;SDS011;6652;48.802;9.190;2023-03-01T13:43:25;28.10;;;16.35;;
13173;SDS011;6652;48.802;9.190;2023-03-01T13:45:58;26.85;;;15.93;;
13173;SDS011;6652;48.802;9.190;2023-03-01T13:48:26;31.25;;;17.13;;
13173;SDS011;6652;48.802;9.190;2023-03-01T13:50:55;29.02;;;18.35;;
13173;SDS011;6652;48.802;9.190;2023-03-01T13:53:26;30.50;;;17.85;;
13173;SDS011;6652;48.802;9.190;2023-03-01T13:55:58;35.97;;;18.42;;
13173;SDS011;6652;48.802;9.190;2023-03-01T13:58:28;39.65;;;20.58;;
13173;SDS011;6652;48.802;9.190;2023-03-01T14:00:59;31.77;;;19.25;;
13173;SDS011;6652;48.802;9.190;2023-03-01T14:03:27;31.35;;;17.10;;
13173;SDS011;6652;48.802;9.190;2023-03-01T14:05:58;33.80;;;18.65;;
13173;SDS011;6652;48.802;9.190;2023-03-01T14:08:28;33.53;;;18.55;;
13173;SDS011;6652;48.802;9.190;2023-03-01T14:11:17;29.67;;;18.95;;
13173;SDS011;6652;48.802;9.190;2023-03-01T14:14:07;33.58;;;19.48;;
13173;SDS011;6652;48.802;9.190;2023-03-01T14:16:48;32.28;;;19.40;;
13173;SDS011;6652;48.802;9.190;2023-03-01T14:19:23;34.25;;;19.25;;
13173;SDS011;6652;48.802;9.190;2023-03-01T14:21:58;35.15;;;19.13;;
13173;SDS011;6652;48.802;9.190;2023-03-01T14:24:28;34.00;;;18.70;;
13173;SDS011;6652;48.802;9.190;2023-03-01T14:26:57;29.35;;;18.25;;
13173;SDS011;6652;48.802;9.190;2023-03-01T14:29:27;37.92;;;19.48;;
13173;SDS011;6652;48.802;9.190;2023-03-01T14:34:35;45.72;;;20.58;;
13173;SDS011;6652;48.802;9.190;2023-03-01T14:37:11;40.50;;;18.70;;
13173;SDS011;6652;48.802;9.190;2023-03-01T14:39:45;31.40;;;19.85;;
13173;SDS011;6652;48.802;9.190;2023-03-01T14:42:12;32.72;;;19.30;;
13173;SDS011;6652;48.802;9.190;2023-03-01T14:44:41;36.20;;;19.05;;
13173;SDS011;6652;48.802;9.190;2023-03-01T14:47:12;30.83;;;18.20;;
13173;SDS011;6652;48.802;9.190;2023-03-01T14:52:17;32.65;;;19.88;;
13173;SDS011;6652;48.802;9.190;2023-03-01T14:54:46;28.85;;;18.80;;
13173;SDS011;6652;48.802;9.190;2023-03-01T14:57:16;33.92;;;20.05;;
13173;SDS011;6652;48.802;9.190;2023-03-01T14:59:46;37.58;;;20.05;;
13173;SDS011;6652;48.802;9.190;2023-03-01T15:02:18;34.67;;;20.05;;
13173;SDS011;6652;48.802;9.190;2023-03-01T15:04:49;29.80;;;16.98;;
13173;SDS011;6652;48.802;9.190;2023-03-01T15:07:20;33.80;;;18.95;;
13173;SDS011;6652;48.802;9.190;2023-03-01T15:09:47;37.10;;;19.70;;
13173;SDS011;6652;48.802;9.190;2023-03-01T15:12:24;30.80;;;18.27;;
13173;SDS011;6652;48.802;9.190;2023-03-01T15:15:00;27.80;;;17.65;;
13173;SDS011;6652;48.802;9.190;2023-03-01T15:17:30;32.53;;;19.67;;
13173;SDS011;6652;48.802;9.190;2023-03-01T15:19:59;31.13;;;19.00;;
13173;SDS011;6652;48.802;9.190;2023-03-01T15:22:28;38.28;;;18.80;;